Time;durP1;ratioP1;P1;durP2;ratioP2;P2;SDS_P1;SDS_P2;PMS_P1;PMS_P2;Temp;Humidity;BMP_temperature;BMP_pressure;BME280_temperature;BME280_humidity;BME280_pressure;Samples;Min_cycle;Max_cycle;Signal;HPM_P1;HPM_P2
2022/03/13 00:02:04;;;;;;;14.38;11.13;;;8.90;66.60;;;;;;6122595;23;95874;-69
2022/03/13 00:04:31;;;;;;;16.23;11.70;;;8.90;66.80;;;;;;6123748;23;93131;-69
2022/03/13 00:06:59;;;;;;;15.60;11.60;;;8.90;67.00;;;;;;6121980;23;94898;-74
2022/03/13 00:09:26;;;;;;;14.80;11.70;;;8.80;67.20;;;;;;6125735;22;92512;-69
2022/03/13 00:11:53;;;;;;;15.77;11.25;;;8.70;67.30;;;;;;6125265;22;93232;-74
2022/03/13 00:14:24;;;;;;;16.83;12.15;;;8.70;67.30;;;;;;6125496;22;92937;-69
2022/03/13 00:16:51;;;;;;;15.88;12.30;;;8.70;67.50;;;;;;6123973;23;92485;-69
2022/03/13 00:19:20;;;;;;;14.95;11.00;;;8.70;67.50;;;;;;6123851;23;100766;-74
2022/03/13 00:21:51;;;;;;;15.52;11.40;;;8.60;67.70;;;;;;6125399;22;93194;-74
2022/03/13 00:24:20;;;;;;;16.38;11.68;;;8.60;67.70;;;;;;6126057;23;93043;-74
2022/03/13 00:26:49;;;;;;;16.10;11.68;;;8.60;67.90;;;;;;6125513;23;93289;-69
2022/03/13 00:29:16;;;;;;;16.48;12.23;;;8.60;68.10;;;;;;6125288;22;92411;-74
2022/03/13 00:31:42;;;;;;;15.05;12.77;;;8.50;68.20;;;;;;6123825;22;95320;-69
2022/03/13 00:34:12;;;;;;;17.73;12.63;;;8.50;68.50;;;;;;6098894;23;98017;-74
2022/03/13 00:36:40;;;;;;;16.83;11.90;;;8.50;68.70;;;;;;6125405;23;92383;-69
2022/03/13 00:39:09;;;;;;;16.55;12.05;;;8.50;68.70;;;;;;6123422;23;92445;-69
2022/03/13 00:41:36;;;;;;;15.95;12.43;;;8.50;69.00;;;;;;6124809;23;103777;-69
2022/03/13 00:44:05;;;;;;;16.52;12.48;;;8.40;68.90;;;;;;6124819;22;93065;-69
2022/03/13 00:46:32;;;;;;;16.58;13.02;;;8.40;69.50;;;;;;6125360;23;92391;-74
2022/03/13 00:49:00;;;;;;;17.75;12.80;;;8.40;69.00;;;;;;6124127;23;91701;-74
2022/03/13 00:51:27;;;;;;;15.27;12.18;;;8.40;69.20;;;;;;6123686;23;93379;-74
2022/03/13 00:53:53;;;;;;;16.45;12.20;;;8.40;69.40;;;;;;6123280;23;93939;-73
2022/03/13 00:56:20;;;;;;;14.65;12.27;;;8.40;69.30;;;;;;6123752;22;94767;-74
2022/03/13 00:58:48;;;;;;;16.58;12.48;;;8.30;69.30;;;;;;6124889;22;92404;-74
2022/03/13 01:01:16;;;;;;;17.27;12.80;;;8.30;69.40;;;;;;6124767;22;93088;-73
2022/03/13 01:03:43;;;;;;;17.20;13.23;;;8.30;69.50;;;;;;6123439;23;94007;-74
2022/03/13 01:06:10;;;;;;;16.70;12.48;;;8.30;69.60;;;;;;6125404;22;92387;-74
2022/03/13 01:08:43;;;;;;;18.25;12.48;;;8.30;69.60;;;;;;6125752;22;92271;-74
2022/03/13 01:11:10;;;;;;;17.60;13.63;;;8.30;69.60;;;;;;6123396;23;93062;-69
2022/03/13 01:13:37;;;;;;;16.17;12.35;;;8.30;69.70;;;;;;6099191;23;95539;-74
2022/03/13 01:16:12;;;;;;;18.00;12.77;;;8.30;69.80;;;;;;6123250;23;92360;-69
2022/03/13 01:18:44;;;;;;;16.15;11.95;;;8.30;69.90;;;;;;6125155;22;92404;-69
2022/03/13 01:21:12;;;;;;;15.80;12.63;;;8.30;69.80;;;;;;6097144;23;98064;-73
2022/03/13 01:23:42;;;;;;;16.52;12.63;;;8.20;69.80;;;;;;6125315;22;95333;-74
2022/03/13 01:26:24;;;;;;;18.08;13.75;;;8.20;69.80;;;;;;6125082;23;93084;-68
2022/03/13 01:28:57;;;;;;;17.00;13.32;;;8.20;69.80;;;;;;6123895;23;92382;-74
2022/03/13 01:31:28;;;;;;;17.43;12.73;;;8.20;70.20;;;;;;6124878;22;92950;-69
2022/03/13 01:33:57;;;;;;;17.48;12.82;;;8.20;70.10;;;;;;6124108;23;95568;-73
2022/03/13 01:36:24;;;;;;;17.05;13.38;;;8.20;70.10;;;;;;6124902;23;96294;-74
2022/03/13 01:38:54;;;;;;;16.88;12.55;;;8.20;70.10;;;;;;6126047;22;91653;-68
2022/03/13 01:41:22;;;;;;;20.10;15.02;;;8.20;70.20;;;;;;6098514;23;93145;-73
2022/03/13 01:43:49;;;;;;;18.75;14.82;;;8.20;70.30;;;;;;6125457;22;92874;-69
2022/03/13 01:46:17;;;;;;;18.30;13.60;;;8.20;70.40;;;;;;6097541;23;94799;-68
2022/03/13 01:49:02;;;;;;;20.88;14.25;;;8.20;70.40;;;;;;6123910;23;92523;-73
2022/03/13 01:51:31;;;;;;;16.38;13.38;;;8.20;70.30;;;;;;6123534;23;95766;-74
2022/03/13 01:54:02;;;;;;;16.45;12.98;;;8.20;70.60;;;;;;6123846;23;95480;-73
2022/03/13 01:56:30;;;;;;;17.50;12.95;;;8.20;70.40;;;;;;6125522;22;92401;-74
2022/03/13 01:58:58;;;;;;;17.73;13.30;;;8.20;70.40;;;;;;6099144;23;92464;-74
2022/03/13 02:01:26;;;;;;;17.02;12.95;;;8.20;70.20;;;;;;6123493;23;93183;-73
2022/03/13 02:03:54;;;;;;;19.92;12.80;;;8.20;70.30;;;;;;6125795;23;92957;-73
2022/03/13 02:06:26;;;;;;;17.13;12.85;;;8.20;70.40;;;;;;6124978;22;92392;-73
2022/03/13 02:08:54;;;;;;;17.42;13.52;;;8.20;70.40;;;;;;6125671;23;92317;-73
2022/03/13 02:11:23;;;;;;;16.63;12.55;;;8.20;70.30;;;;;;6123481;22;95644;-73
2022/03/13 02:13:53;;;;;;;16.33;13.23;;;8.20;70.10;;;;;;6125235;22;95366;-73
2022/03/13 02:16:20;;;;;;;15.40;12.90;;;8.20;70.10;;;;;;6125138;22;92375;-73
2022/03/13 02:18:50;;;;;;;19.83;13.38;;;8.10;70.00;;;;;;6123943;23;92413;-73
2022/03/13 02:21:19;;;;;;;16.17;12.00;;;8.10;70.20;;;;;;6123079;23;95706;-73
2022/03/13 02:23:46;;;;;;;18.48;12.55;;;8.10;70.20;;;;;;6123178;23;106007;-74
2022/03/13 02:26:13;;;;;;;18.60;13.00;;;8.00;70.20;;;;;;6123036;23;92398;-73
2022/03/13 02:28:51;;;;;;;16.00;13.15;;;8.00;70.30;;;;;;6124325;23;91754;-73
2022/03/13 02:31:27;;;;;;;16.40;11.85;;;8.00;70.20;;;;;;6123438;23;95649;-73
2022/03/13 02:33:56;;;;;;;14.90;12.65;;;8.00;70.10;;;;;;6125290;22;92816;-73
2022/03/13 02:36:32;;;;;;;17.13;13.55;;;7.90;70.10;;;;;;6123946;22;94832;-73
2022/03/13 02:38:59;;;;;;;16.27;12.80;;;7.90;70.40;;;;;;6123825;23;92466;-73
2022/03/13 02:41:26;;;;;;;17.63;12.98;;;7.90;70.30;;;;;;6123081;23;95645;-73
2022/03/13 02:43:55;;;;;;;15.77;13.18;;;7.90;70.20;;;;;;6125105;22;92301;-74
2022/03/13 02:46:24;;;;;;;15.23;12.88;;;7.90;70.10;;;;;;6125229;22;92366;-74
2022/03/13 02:48:51;;;;;;;19.55;13.02;;;7.90;70.00;;;;;;6123315;23;101904;-73
2022/03/13 02:51:18;;;;;;;19.08;12.70;;;7.90;69.90;;;;;;6123323;23;93106;-73
2022/03/13 02:53:45;;;;;;;18.30;13.18;;;7.90;70.00;;;;;;6124036;23;95458;-73
2022/03/13 02:56:12;;;;;;;16.48;12.95;;;7.90;69.90;;;;;;6124921;22;93806;-74
2022/03/13 02:58:39;;;;;;;17.90;13.15;;;7.90;69.90;;;;;;6123424;23;92485;-73
2022/03/13 03:01:06;;;;;;;17.48;12.80;;;7.90;70.00;;;;;;6121814;23;97263;-73
2022/03/13 03:03:34;;;;;;;16.00;11.77;;;7.90;69.90;;;;;;6124667;22;95810;-73
2022/03/13 03:06:01;;;;;;;16.63;12.38;;;7.90;70.10;;;;;;6125073;23;92391;-73
2022/03/13 03:08:28;;;;;;;15.93;12.45;;;7.90;70.20;;;;;;6123487;23;92457;-73
2022/03/13 03:10:56;;;;;;;15.20;11.60;;;7.90;70.40;;;;;;6123511;23;92790;-73
2022/03/13 03:13:23;;;;;;;17.70;11.98;;;7.90;70.30;;;;;;6125008;22;92989;-73
2022/03/13 03:15:50;;;;;;;18.95;14.10;;;7.90;70.00;;;;;;6123124;23;92428;-73
2022/03/13 03:18:17;;;;;;;17.67;12.23;;;7.90;70.00;;;;;;6123743;23;91689;-73
2022/03/13 03:20:44;;;;;;;17.13;13.35;;;7.90;69.90;;;;;;6124396;22;103089;-74
2022/03/13 03:23:12;;;;;;;16.05;12.23;;;7.90;69.60;;;;;;6124660;22;92912;-73
2022/03/13 03:25:39;;;;;;;19.20;12.63;;;7.90;69.70;;;;;;6123067;22;94678;-74
2022/03/13 03:28:09;;;;;;;19.88;13.80;;;7.90;69.60;;;;;;6124949;22;92379;-74
2022/03/13 03:30:37;;;;;;;20.73;13.00;;;7.90;69.60;;;;;;6098926;23;93052;-73
2022/03/13 03:33:05;;;;;;;17.50;12.02;;;7.90;69.60;;;;;;6122994;23;95460;-73
2022/03/13 03:35:32;;;;;;;14.77;12.50;;;7.90;69.70;;;;;;6123311;23;93365;-73
2022/03/13 03:37:59;;;;;;;18.13;12.32;;;7.90;69.70;;;;;;6124824;22;92768;-73
2022/03/13 03:40:29;;;;;;;16.50;12.27;;;7.90;69.80;;;;;;6122564;23;95597;-74
2022/03/13 03:43:01;;;;;;;18.13;12.32;;;7.80;69.80;;;;;;6125141;22;92924;-74
2022/03/13 03:45:28;;;;;;;17.38;12.73;;;7.80;69.70;;;;;;6124605;22;92319;-74
2022/03/13 03:47:56;;;;;;;18.60;13.30;;;7.80;69.60;;;;;;6124820;22;92382;-73
2022/03/13 03:50:23;;;;;;;16.70;13.27;;;7.70;69.90;;;;;;6121094;23;100324;-73
2022/03/13 03:52:57;;;;;;;17.40;12.85;;;7.70;70.00;;;;;;6098212;23;98123;-73
2022/03/13 03:55:27;;;;;;;17.70;12.98;;;7.70;70.10;;;;;;6124568;23;92330;-73
2022/03/13 03:57:53;;;;;;;17.27;12.50;;;7.60;70.00;;;;;;6124803;23;92456;-73
2022/03/13 04:00:23;;;;;;;19.30;13.15;;;7.60;70.30;;;;;;6123906;22;93362;-73
2022/03/13 04:02:51;;;;;;;17.42;12.55;;;7.50;71.10;;;;;;6124590;23;94066;-73
2022/03/13 04:05:17;;;;;;;18.42;12.95;;;7.50;70.50;;;;;;6122443;23;92313;-73
2022/03/13 04:07:45;;;;;;;16.45;12.77;;;7.40;70.30;;;;;;6125141;22;91660;-73
2022/03/13 04:10:13;;;;;;;16.30;13.50;;;7.40;70.40;;;;;;6124566;22;93134;-73
2022/03/13 04:12:40;;;;;;;14.77;11.75;;;7.30;70.40;;;;;;6124150;22;98295;-73
2022/03/13 04:15:07;;;;;;;16.77;13.02;;;7.30;70.50;;;;;;6123286;22;94682;-73
2022/03/13 04:17:35;;;;;;;16.77;12.52;;;7.20;70.50;;;;;;6098039;23;92353;-73
2022/03/13 04:20:03;;;;;;;17.70;12.90;;;7.20;70.50;;;;;;6124468;22;93089;-73
2022/03/13 04:22:30;;;;;;;16.92;12.63;;;7.20;70.50;;;;;;6124146;22;93069;-73
2022/03/13 04:24:57;;;;;;;17.95;12.32;;;7.10;70.70;;;;;;6124673;22;92280;-73
2022/03/13 04:27:27;;;;;;;15.60;12.07;;;7.10;70.90;;;;;;6123027;23;92427;-73
2022/03/13 04:29:55;;;;;;;16.95;12.48;;;7.00;70.90;;;;;;6124762;23;93184;-73
2022/03/13 04:32:22;;;;;;;16.98;12.27;;;7.00;70.80;;;;;;6123051;23;95525;-73
2022/03/13 04:34:50;;;;;;;14.65;12.18;;;7.00;70.90;;;;;;6124703;22;92282;-73
2022/03/13 04:37:18;;;;;;;17.65;12.75;;;6.90;71.00;;;;;;6098336;23;92477;-73
2022/03/13 04:39:50;;;;;;;16.50;13.45;;;6.90;71.10;;;;;;6120814;23;98094;-73
2022/03/13 04:42:18;;;;;;;16.40;12.68;;;6.90;71.10;;;;;;6124261;23;95196;-73
2022/03/13 04:44:46;;;;;;;14.35;11.68;;;6.80;71.30;;;;;;6123990;22;92352;-73
2022/03/13 04:47:12;;;;;;;15.40;12.15;;;6.80;71.50;;;;;;6124029;22;94509;-73
2022/03/13 04:49:41;;;;;;;15.07;11.45;;;6.80;71.60;;;;;;6124740;22;93113;-73
2022/03/13 04:52:12;;;;;;;17.67;13.30;;;6.70;71.30;;;;;;6126038;23;92902;-73
2022/03/13 04:54:39;;;;;;;16.60;12.15;;;6.70;70.90;;;;;;6125857;23;92327;-73
2022/03/13 04:57:06;;;;;;;17.77;12.75;;;6.70;70.90;;;;;;6126248;22;91640;-73
2022/03/13 04:59:33;;;;;;;16.13;12.43;;;6.70;70.90;;;;;;6124897;22;93202;-73
2022/03/13 05:02:00;;;;;;;14.02;11.38;;;6.70;70.90;;;;;;6125610;22;92930;-73
2022/03/13 05:04:27;;;;;;;15.05;11.90;;;6.70;70.60;;;;;;6124274;23;94717;-73
2022/03/13 05:06:54;;;;;;;15.18;12.20;;;6.60;70.60;;;;;;6123936;23;96593;-73
2022/03/13 05:09:21;;;;;;;17.40;11.90;;;6.60;70.50;;;;;;6123738;23;93338;-73
2022/03/13 05:11:48;;;;;;;16.60;11.70;;;6.50;70.80;;;;;;6123732;23;92670;-73
2022/03/13 05:14:15;;;;;;;18.17;12.13;;;6.50;71.10;;;;;;6124305;23;92394;-73
2022/03/13 05:16:42;;;;;;;17.35;12.38;;;6.50;70.90;;;;;;6125353;22;92421;-73
2022/03/13 05:19:09;;;;;;;16.33;10.57;;;6.50;71.10;;;;;;6125429;22;93164;-73
2022/03/13 05:21:41;;;;;;;15.73;11.55;;;6.40;71.20;;;;;;6124205;23;92608;-73
2022/03/13 05:24:08;;;;;;;16.13;11.15;;;6.40;71.30;;;;;;6125602;22;92339;-73
2022/03/13 05:26:35;;;;;;;15.60;11.38;;;6.30;71.20;;;;;;6123768;23;92481;-73
2022/03/13 05:29:02;;;;;;;16.30;10.98;;;6.30;71.20;;;;;;6123461;22;105687;-73
2022/03/13 05:31:29;;;;;;;15.07;11.90;;;6.30;71.30;;;;;;6125282;23;95896;-73
2022/03/13 05:33:57;;;;;;;14.05;10.85;;;6.20;71.20;;;;;;6125634;22;92337;-73
2022/03/13 05:36:24;;;;;;;16.23;12.10;;;6.20;71.20;;;;;;6099082;23;92470;-73
2022/03/13 05:38:51;;;;;;;14.70;11.27;;;6.20;71.60;;;;;;6099271;23;93066;-73
2022/03/13 05:41:23;;;;;;;15.80;11.00;;;6.20;71.30;;;;;;6123486;23;95472;-73
2022/03/13 05:43:51;;;;;;;15.82;12.07;;;6.20;71.10;;;;;;6123230;23;92391;-73
2022/03/13 05:46:18;;;;;;;15.15;11.73;;;6.20;71.00;;;;;;6125847;22;91697;-73
2022/03/13 05:48:45;;;;;;;14.93;11.70;;;6.20;71.00;;;;;;6125195;23;93224;-73
2022/03/13 05:51:12;;;;;;;16.90;12.20;;;6.10;71.40;;;;;;6099140;23;92983;-73
2022/03/13 05:53:39;;;;;;;15.50;12.15;;;6.10;71.30;;;;;;6123685;22;94730;-73
2022/03/13 05:56:05;;;;;;;15.15;11.90;;;6.20;71.20;;;;;;6123671;23;92485;-73
2022/03/13 05:58:32;;;;;;;16.67;10.65;;;6.10;71.10;;;;;;6124874;22;93317;-73
2022/03/13 06:01:04;;;;;;;16.77;11.77;;;6.20;71.00;;;;;;6125109;23;92621;-73
2022/03/13 06:03:32;;;;;;;14.65;10.85;;;6.20;70.40;;;;;;6123749;23;94403;-74
2022/03/13 06:06:02;;;;;;;14.73;11.40;;;6.30;70.30;;;;;;6124680;23;92414;-73
2022/03/13 06:08:29;;;;;;;15.88;12.07;;;6.30;70.30;;;;;;6122714;23;113828;-73
2022/03/13 06:10:57;;;;;;;17.25;11.98;;;6.40;69.70;;;;;;6123987;23;93056;-73
2022/03/13 06:13:24;;;;;;;14.27;10.43;;;6.50;69.50;;;;;;6098996;23;92408;-73
2022/03/13 06:15:51;;;;;;;15.07;11.32;;;6.60;69.00;;;;;;6125119;22;92338;-73
2022/03/13 06:18:18;;;;;;;14.00;10.73;;;6.60;68.60;;;;;;6121938;23;98340;-73
2022/03/13 06:20:45;;;;;;;13.82;10.32;;;6.70;68.00;;;;;;6123450;23;95466;-73
2022/03/13 06:23:13;;;;;;;15.65;10.93;;;6.80;68.40;;;;;;6099077;23;92466;-73
2022/03/13 06:25:43;;;;;;;16.20;11.75;;;6.80;67.60;;;;;;6125107;23;92417;-73
2022/03/13 06:28:14;;;;;;;14.93;11.18;;;7.00;67.30;;;;;;6125209;22;93030;-73
2022/03/13 06:30:41;;;;;;;15.23;11.77;;;7.10;66.90;;;;;;6123709;23;92981;-73
2022/03/13 06:33:08;;;;;;;14.77;11.70;;;7.30;65.90;;;;;;6123020;23;107413;-73
2022/03/13 06:35:35;;;;;;;16.27;11.38;;;7.50;65.50;;;;;;6124156;23;91699;-73
2022/03/13 06:38:02;;;;;;;13.80;11.85;;;7.70;64.70;;;;;;6123631;23;93187;-73
2022/03/13 06:40:29;;;;;;;11.98;10.65;;;7.90;63.80;;;;;;6125294;22;93018;-73
2022/03/13 06:42:58;;;;;;;13.52;11.50;;;8.00;63.20;;;;;;6123888;22;94763;-73
2022/03/13 06:45:25;;;;;;;13.25;10.27;;;8.10;63.00;;;;;;6123596;23;92424;-74
2022/03/13 06:47:52;;;;;;;14.93;10.80;;;8.20;62.40;;;;;;6074092;23;96111;-74
2022/03/13 06:50:23;;;;;;;15.02;12.15;;;8.30;62.20;;;;;;6123778;23;93103;-73
2022/03/13 06:52:52;;;;;;;13.77;11.32;;;8.40;61.60;;;;;;6123722;23;92350;-73
2022/03/13 06:55:22;;;;;;;13.68;10.73;;;8.50;61.40;;;;;;6125333;22;92776;-74
2022/03/13 06:57:50;;;;;;;13.95;10.07;;;8.50;60.80;;;;;;6098295;23;95569;-74
2022/03/13 07:00:18;;;;;;;12.07;10.52;;;8.60;60.40;;;;;;6125414;23;91907;-73
2022/03/13 07:02:48;;;;;;;13.48;11.20;;;8.60;60.00;;;;;;6123434;23;92494;-73
2022/03/13 07:05:15;;;;;;;12.88;10.73;;;8.70;59.70;;;;;;6125379;22;92389;-74
2022/03/13 07:07:43;;;;;;;12.35;11.07;;;8.80;59.40;;;;;;6097297;23;97710;-73
2022/03/13 07:10:13;;;;;;;10.75;9.65;;;8.90;59.70;;;;;;6125035;22;95475;-73
2022/03/13 07:12:42;;;;;;;13.45;10.75;;;9.10;58.60;;;;;;6099125;23;92406;-74
2022/03/13 07:15:12;;;;;;;12.32;10.13;;;9.20;58.20;;;;;;6098431;23;92425;-73
2022/03/13 07:17:44;;;;;;;12.55;10.27;;;9.40;57.80;;;;;;6124858;23;94151;-73
2022/03/13 07:20:13;;;;;;;13.02;9.68;;;9.40;57.20;;;;;;6124992;22;92580;-73
2022/03/13 07:22:42;;;;;;;12.85;10.63;;;9.40;57.40;;;;;;6123274;23;99922;-73
2022/03/13 07:25:10;;;;;;;13.88;9.27;;;9.40;57.30;;;;;;6123654;23;91659;-73
2022/03/13 07:27:37;;;;;;;11.65;9.80;;;9.40;57.10;;;;;;6124128;23;93683;-73
2022/03/13 07:30:09;;;;;;;13.35;10.05;;;9.40;57.60;;;;;;6125175;23;93124;-74
2022/03/13 07:32:36;;;;;;;13.70;9.60;;;9.40;57.10;;;;;;6123648;22;94844;-73
2022/03/13 07:35:04;;;;;;;12.43;9.32;;;9.30;57.40;;;;;;6099186;23;92593;-73
2022/03/13 07:37:31;;;;;;;11.05;9.45;;;9.30;57.80;;;;;;6125336;22;93276;-73
2022/03/13 07:39:58;;;;;;;12.90;10.00;;;9.40;58.10;;;;;;6125321;22;93209;-73
2022/03/13 07:42:25;;;;;;;12.70;10.05;;;9.40;57.60;;;;;;6123178;23;92434;-73
2022/03/13 07:44:52;;;;;;;12.15;9.43;;;9.50;57.40;;;;;;6098297;23;92432;-73
2022/03/13 07:47:19;;;;;;;16.10;10.50;;;9.60;57.00;;;;;;6125283;23;92383;-73
2022/03/13 07:49:46;;;;;;;11.35;9.88;;;9.60;56.60;;;;;;6124361;22;111677;-74
2022/03/13 07:52:13;;;;;;;9.60;8.40;;;9.80;56.40;;;;;;6125498;22;92673;-73
2022/03/13 07:54:40;;;;;;;12.52;10.00;;;9.80;56.00;;;;;;6125569;22;92432;-73
2022/03/13 07:57:07;;;;;;;12.18;10.50;;;9.80;56.20;;;;;;6122474;22;95545;-74
2022/03/13 07:59:34;;;;;;;12.52;10.52;;;9.90;56.10;;;;;;6097899;23;97892;-73
2022/03/13 08:02:01;;;;;;;14.60;10.27;;;10.00;55.60;;;;;;6073710;23;92809;-76
2022/03/13 08:04:28;;;;;;;13.18;10.05;;;10.10;55.80;;;;;;6125059;22;92410;-75
2022/03/13 08:06:55;;;;;;;12.48;9.85;;;10.30;55.60;;;;;;6122514;23;98631;-74
2022/03/13 08:09:22;;;;;;;10.80;9.13;;;10.40;54.50;;;;;;6123682;23;92856;-74
2022/03/13 08:11:49;;;;;;;12.45;10.48;;;10.60;55.00;;;;;;6125662;22;92770;-74
2022/03/13 08:14:16;;;;;;;11.85;9.75;;;10.80;54.50;;;;;;6123299;23;91718;-74
2022/03/13 08:16:43;;;;;;;12.07;9.98;;;11.00;54.80;;;;;;6125200;22;93270;-74
2022/03/13 08:19:11;;;;;;;10.38;9.35;;;11.40;53.50;;;;;;6122519;23;93152;-74
2022/03/13 08:21:38;;;;;;;12.43;10.25;;;11.60;52.50;;;;;;6122349;23;94850;-74
2022/03/13 08:24:07;;;;;;;14.63;10.60;;;11.80;50.80;;;;;;6124553;23;92357;-74
2022/03/13 08:26:38;;;;;;;12.48;10.20;;;12.00;50.60;;;;;;6125831;23;93241;-74
2022/03/13 08:29:06;;;;;;;12.43;11.23;;;12.20;50.30;;;;;;6075614;23;95644;-74
2022/03/13 08:31:34;;;;;;;12.43;10.32;;;12.30;50.00;;;;;;6123827;23;92468;-74
2022/03/13 08:34:07;;;;;;;13.00;10.70;;;12.30;50.10;;;;;;6099426;23;92790;-74
2022/03/13 08:36:38;;;;;;;12.13;10.68;;;12.40;49.20;;;;;;6125663;23;93211;-74
2022/03/13 08:39:06;;;;;;;13.80;9.65;;;12.60;49.30;;;;;;6099565;23;94530;-74
2022/03/13 08:41:34;;;;;;;11.15;8.93;;;12.70;48.60;;;;;;6126246;22;92767;-74
2022/03/13 08:44:02;;;;;;;16.20;10.80;;;12.70;48.20;;;;;;6126029;22;92402;-74
2022/03/13 08:46:29;;;;;;;11.45;10.25;;;12.70;47.70;;;;;;6122517;23;95502;-74
2022/03/13 08:48:56;;;;;;;12.52;10.13;;;12.70;47.60;;;;;;6123945;23;95272;-74
2022/03/13 08:51:23;;;;;;;11.90;10.63;;;12.80;48.20;;;;;;6124227;23;92314;-74
2022/03/13 08:53:51;;;;;;;11.98;10.60;;;12.80;47.30;;;;;;6125837;23;92383;-74
2022/03/13 08:56:18;;;;;;;11.65;8.60;;;12.70;47.30;;;;;;6125002;22;93646;-74
2022/03/13 08:58:45;;;;;;;12.60;10.23;;;12.70;47.80;;;;;;6124040;23;95543;-74
2022/03/13 09:01:12;;;;;;;12.73;10.05;;;12.70;47.20;;;;;;6123367;23;92393;-74
2022/03/13 09:03:39;;;;;;;13.68;10.85;;;12.70;48.00;;;;;;6126097;23;92301;-74
2022/03/13 09:06:06;;;;;;;14.23;10.50;;;12.70;47.80;;;;;;6123471;23;95666;-74
2022/03/13 09:08:34;;;;;;;14.07;10.32;;;12.70;48.30;;;;;;6123964;23;92949;-74
2022/03/13 09:11:00;;;;;;;11.38;9.70;;;12.60;48.00;;;;;;6122469;23;94823;-74
2022/03/13 09:13:27;;;;;;;13.60;9.35;;;12.60;49.30;;;;;;6126253;22;92415;-74
2022/03/13 09:15:56;;;;;;;13.57;10.93;;;12.70;49.90;;;;;;6124336;23;95674;-74
2022/03/13 09:18:23;;;;;;;13.35;10.15;;;12.80;49.40;;;;;;6123629;23;93093;-74
2022/03/13 09:20:53;;;;;;;14.88;10.75;;;12.70;48.90;;;;;;6099423;23;92429;-74
2022/03/13 09:23:20;;;;;;;13.32;9.95;;;12.80;49.00;;;;;;6125146;22;92473;-74
2022/03/13 09:25:47;;;;;;;14.88;11.57;;;12.90;48.80;;;;;;6126194;22;93682;-74
2022/03/13 09:28:14;;;;;;;14.57;11.32;;;12.90;48.30;;;;;;6124804;22;109126;-74
2022/03/13 09:30:41;;;;;;;13.27;10.00;;;13.00;47.10;;;;;;6125345;22;92308;-74
2022/03/13 09:33:08;;;;;;;13.40;10.48;;;12.90;47.40;;;;;;6125079;23;92392;-74
2022/03/13 09:35:35;;;;;;;13.52;11.30;;;12.90;46.90;;;;;;6123785;22;95365;-74
2022/03/13 09:38:02;;;;;;;14.45;10.65;;;13.00;46.80;;;;;;6123899;23;94254;-74
2022/03/13 09:40:30;;;;;;;14.43;9.75;;;13.10;46.90;;;;;;6125509;22;92354;-75
2022/03/13 09:42:57;;;;;;;14.32;10.77;;;13.10;47.50;;;;;;6126002;22;92446;-74
2022/03/13 09:45:23;;;;;;;13.65;10.57;;;13.20;46.70;;;;;;6123319;23;95821;-74
2022/03/13 09:47:51;;;;;;;11.52;9.60;;;13.20;46.60;;;;;;6123435;23;95472;-74
2022/03/13 09:50:20;;;;;;;10.95;9.65;;;13.20;47.00;;;;;;6099764;23;92517;-74
2022/03/13 09:52:47;;;;;;;12.75;10.52;;;13.30;45.90;;;;;;6124683;23;91663;-74
2022/03/13 09:55:15;;;;;;;11.70;9.25;;;13.30;46.40;;;;;;6123507;23;92450;-74
2022/03/13 09:57:43;;;;;;;15.63;11.90;;;13.40;46.40;;;;;;6125766;22;92854;-74
2022/03/13 10:00:13;;;;;;;15.88;11.82;;;13.50;46.10;;;;;;6122999;22;94686;-74
2022/03/13 10:02:41;;;;;;;12.85;10.05;;;13.60;46.00;;;;;;6125180;22;93232;-74
2022/03/13 10:05:13;;;;;;;15.50;10.95;;;13.60;47.00;;;;;;6124845;22;93190;-74
2022/03/13 10:07:54;;;;;;;14.20;11.48;;;13.70;45.30;;;;;;6123630;23;95464;-74
2022/03/13 10:10:41;;;;;;;16.52;12.75;;;13.80;44.90;;;;;;6123250;23;92802;-74
2022/03/13 10:13:09;;;;;;;13.43;11.70;;;13.80;44.90;;;;;;6125558;23;93328;-74
2022/03/13 10:15:40;;;;;;;14.43;11.63;;;13.90;44.80;;;;;;6124978;22;93262;-75
2022/03/13 10:18:18;;;;;;;12.18;10.48;;;13.90;44.90;;;;;;6125480;22;92877;-77
2022/03/13 10:20:46;;;;;;;16.73;10.73;;;14.00;44.80;;;;;;6124735;23;92640;-76
2022/03/13 10:23:19;;;;;;;14.10;11.68;;;14.00;45.40;;;;;;6124639;22;95757;-76
2022/03/13 10:25:48;;;;;;;13.23;10.87;;;14.10;44.50;;;;;;6122091;23;98265;-76
2022/03/13 10:28:32;;;;;;;11.88;9.95;;;14.10;44.90;;;;;;6122327;23;111552;-76
2022/03/13 10:30:59;;;;;;;14.40;11.63;;;14.20;44.20;;;;;;6124299;23;92405;-76
2022/03/13 10:33:46;;;;;;;12.38;10.82;;;14.30;44.80;;;;;;6124088;23;92505;-77
2022/03/13 10:36:21;;;;;;;15.32;11.35;;;14.40;44.60;;;;;;6123094;23;93282;-76
2022/03/13 10:38:49;;;;;;;13.00;10.07;;;14.40;43.90;;;;;;6123500;23;92911;-77
2022/03/13 10:41:17;;;;;;;14.45;11.35;;;14.50;44.30;;;;;;6124862;23;92426;-76
2022/03/13 10:43:53;;;;;;;12.13;10.45;;;14.50;44.30;;;;;;6123555;23;92271;-76
2022/03/13 10:46:28;;;;;;;12.65;10.65;;;14.70;43.90;;;;;;6124094;22;93232;-76
2022/03/13 10:48:57;;;;;;;14.05;11.43;;;14.80;43.90;;;;;;6125012;22;92303;-76
2022/03/13 10:51:38;;;;;;;14.50;11.88;;;15.00;43.50;;;;;;6123459;22;94738;-76
2022/03/13 10:54:06;;;;;;;13.40;11.13;;;15.30;42.50;;;;;;6125405;23;92393;-77
2022/03/13 10:56:33;;;;;;;13.90;11.35;;;15.30;41.50;;;;;;6124565;22;93067;-76
2022/03/13 10:59:15;;;;;;;12.80;10.05;;;15.50;41.50;;;;;;6124306;23;92766;-76
2022/03/13 11:01:44;;;;;;;11.63;10.05;;;15.50;42.40;;;;;;6125111;22;92303;-76
2022/03/13 11:04:15;;;;;;;13.40;11.98;;;15.50;40.70;;;;;;6074407;23;92439;-76
2022/03/13 11:06:43;;;;;;;16.63;14.80;;;15.60;40.40;;;;;;6123607;23;92917;-76
2022/03/13 11:09:10;;;;;;;14.77;11.77;;;15.60;40.40;;;;;;6099461;23;92869;-76
2022/03/13 11:11:37;;;;;;;13.45;11.38;;;15.70;40.20;;;;;;6124592;22;92388;-76
2022/03/13 11:14:05;;;;;;;13.15;10.98;;;15.70;41.30;;;;;;6122908;23;92531;-76
2022/03/13 11:16:32;;;;;;;14.07;11.57;;;15.80;41.00;;;;;;6121146;23;98002;-76
2022/03/13 11:19:08;;;;;;;12.70;10.85;;;15.90;41.30;;;;;;6123079;23;95376;-76
2022/03/13 11:21:35;;;;;;;14.55;12.00;;;16.00;42.20;;;;;;6124476;22;92312;-76
2022/03/13 11:24:03;;;;;;;14.07;11.80;;;15.90;40.30;;;;;;6123428;23;92443;-76
2022/03/13 11:26:30;;;;;;;12.77;10.65;;;15.90;39.60;;;;;;6122555;23;95846;-76
2022/03/13 11:28:58;;;;;;;13.80;10.88;;;15.80;40.30;;;;;;6122985;23;92928;-76
2022/03/13 11:31:34;;;;;;;13.88;11.50;;;15.80;40.20;;;;;;6124459;22;92457;-77
2022/03/13 11:34:18;;;;;;;13.52;11.35;;;15.70;40.60;;;;;;6125042;22;91657;-77
2022/03/13 11:36:51;;;;;;;14.40;11.10;;;15.80;39.20;;;;;;6098378;23;95569;-76
2022/03/13 11:39:30;;;;;;;12.90;11.57;;;15.80;40.00;;;;;;6098101;23;95306;-77
2022/03/13 11:41:58;;;;;;;13.85;10.80;;;15.90;39.70;;;;;;6123198;23;94809;-76
2022/03/13 11:44:33;;;;;;;13.52;11.98;;;15.80;39.60;;;;;;6122867;23;92471;-76
2022/03/13 11:47:01;;;;;;;13.40;11.40;;;15.90;39.40;;;;;;6124475;23;93295;-75
2022/03/13 11:49:30;;;;;;;13.07;11.75;;;16.00;39.40;;;;;;6098649;23;93144;-75
2022/03/13 11:52:20;;;;;;;12.40;11.10;;;16.10;39.10;;;;;;6122847;23;92471;-76
2022/03/13 11:54:48;;;;;;;13.27;11.95;;;16.20;37.90;;;;;;6123148;23;92314;-77
2022/03/13 11:57:17;;;;;;;13.98;11.82;;;16.20;38.60;;;;;;6124268;22;93121;-77
2022/03/13 11:59:49;;;;;;;14.18;11.95;;;16.30;37.90;;;;;;6125023;23;93132;-76
2022/03/13 12:02:40;;;;;;;12.40;11.07;;;16.30;39.00;;;;;;6125796;22;92465;-78
2022/03/13 12:05:25;;;;;;;13.48;12.07;;;16.40;37.90;;;;;;6125713;23;92314;-77
2022/03/13 12:07:56;;;;;;;13.13;10.85;;;16.20;37.90;;;;;;6124015;23;95615;-76
2022/03/13 12:10:32;;;;;;;13.48;11.07;;;16.20;38.00;;;;;;6075523;23;97857;-77
2022/03/13 12:13:06;;;;;;;13.63;12.15;;;16.20;37.80;;;;;;6125526;22;92769;-77
2022/03/13 12:15:34;;;;;;;13.40;12.00;;;16.30;38.20;;;;;;6099550;23;92511;-76
2022/03/13 12:18:21;;;;;;;14.65;11.75;;;16.30;37.80;;;;;;6123844;23;93168;-76
2022/03/13 12:20:50;;;;;;;12.90;11.45;;;16.40;37.10;;;;;;6125276;22;93005;-75
2022/03/13 12:23:34;;;;;;;12.80;11.60;;;16.30;37.50;;;;;;6125641;22;92455;-75
2022/03/13 12:26:32;;;;;;;14.55;11.82;;;16.40;36.80;;;;;;6124664;23;91650;-75
2022/03/13 12:28:59;;;;;;;14.70;12.15;;;16.50;36.60;;;;;;6123965;23;93264;-75
2022/03/13 12:31:26;;;;;;;14.35;12.27;;;16.50;37.10;;;;;;6125143;22;92959;-75
2022/03/13 12:33:59;;;;;;;12.15;10.82;;;16.60;37.70;;;;;;6124285;23;94855;-75
2022/03/13 12:36:35;;;;;;;13.07;11.50;;;16.60;36.90;;;;;;6125583;22;92670;-75
2022/03/13 12:39:39;;;;;;;14.10;12.02;;;16.70;36.00;;;;;;6125254;22;93167;-75
2022/03/13 12:42:07;;;;;;;14.80;12.63;;;16.70;35.90;;;;;;6123468;23;93922;-75
2022/03/13 12:44:37;;;;;;;12.10;10.90;;;16.70;36.40;;;;;;6125248;22;92596;-75